sensor_id;sensor_type;location;lat;lon;timestamp;P1;durP1;ratioP1;P2;durP2;ratioP2
22894;SDS011;11614;52.494;6.976;2022-12-08T00:00:45;3.43;;;1.53;;
22894;SDS011;11614;52.494;6.976;2022-12-08T00:03:11;3.40;;;1.07;;
22894;SDS011;11614;52.494;6.976;2022-12-08T00:05:37;5.10;;;2.07;;
22894;SDS011;11614;52.494;6.976;2022-12-08T00:08:22;2.30;;;0.97;;
22894;SDS011;11614;52.494;6.976;2022-12-08T00:11:11;3.43;;;1.87;;
22894;SDS011;11614;52.494;6.976;2022-12-08T00:13:37;8.87;;;2.10;;
22894;SDS011;11614;52.494;6.976;2022-12-08T00:16:03;2.43;;;1.13;;
22894;SDS011;11614;52.494;6.976;2022-12-08T00:18:29;4.73;;;1.83;;
22894;SDS011;11614;52.494;6.976;2022-12-08T00:20:55;3.83;;;1.47;;
22894;SDS011;11614;52.494;6.976;2022-12-08T00:23:22;2.40;;;1.10;;
22894;SDS011;11614;52.494;6.976;2022-12-08T00:25:47;5.70;;;1.73;;
22894;SDS011;11614;52.494;6.976;2022-12-08T00:28:13;3.20;;;1.80;;
22894;SDS011;11614;52.494;6.976;2022-12-08T00:30:40;5.57;;;3.10;;
22894;SDS011;11614;52.494;6.976;2022-12-08T00:33:06;1.70;;;0.83;;
22894;SDS011;11614;52.494;6.976;2022-12-08T00:35:32;6.43;;;2.50;;
22894;SDS011;11614;52.494;6.976;2022-12-08T00:37:58;5.23;;;1.90;;
22894;SDS011;11614;52.494;6.976;2022-12-08T00:40:24;3.67;;;2.03;;
22894;SDS011;11614;52.494;6.976;2022-12-08T00:42:50;6.23;;;2.83;;
22894;SDS011;11614;52.494;6.976;2022-12-08T00:45:16;6.27;;;3.17;;
22894;SDS011;11614;52.494;6.976;2022-12-08T00:47:42;9.83;;;3.40;;
22894;SDS011;11614;52.494;6.976;2022-12-08T00:50:08;7.50;;;3.50;;
22894;SDS011;11614;52.494;6.976;2022-12-08T00:52:34;3.57;;;1.63;;
22894;SDS011;11614;52.494;6.976;2022-12-08T00:55:00;7.37;;;4.07;;
22894;SDS011;11614;52.494;6.976;2022-12-08T00:57:26;10.10;;;3.07;;
22894;SDS011;11614;52.494;6.976;2022-12-08T00:59:52;5.53;;;2.97;;
22894;SDS011;11614;52.494;6.976;2022-12-08T01:02:18;8.07;;;4.47;;
22894;SDS011;11614;52.494;6.976;2022-12-08T01:04:44;11.63;;;4.10;;
22894;SDS011;11614;52.494;6.976;2022-12-08T01:07:10;7.63;;;3.43;;
22894;SDS011;11614;52.494;6.976;2022-12-08T01:09:36;7.83;;;3.53;;
22894;SDS011;11614;52.494;6.976;2022-12-08T01:12:02;8.37;;;3.60;;
22894;SDS011;11614;52.494;6.976;2022-12-08T01:14:28;8.67;;;4.33;;
22894;SDS011;11614;52.494;6.976;2022-12-08T01:16:54;7.63;;;3.50;;
22894;SDS011;11614;52.494;6.976;2022-12-08T01:19:20;11.97;;;4.00;;
22894;SDS011;11614;52.494;6.976;2022-12-08T01:21:46;7.83;;;4.17;;
22894;SDS011;11614;52.494;6.976;2022-12-08T01:24:16;12.70;;;3.93;;
22894;SDS011;11614;52.494;6.976;2022-12-08T01:26:42;8.43;;;4.60;;
22894;SDS011;11614;52.494;6.976;2022-12-08T01:29:08;6.73;;;3.43;;
22894;SDS011;11614;52.494;6.976;2022-12-08T01:31:34;6.43;;;2.27;;
22894;SDS011;11614;52.494;6.976;2022-12-08T01:34:00;6.33;;;3.27;;
22894;SDS011;11614;52.494;6.976;2022-12-08T01:36:27;8.10;;;3.93;;
22894;SDS011;11614;52.494;6.976;2022-12-08T01:38:55;5.77;;;2.63;;
22894;SDS011;11614;52.494;6.976;2022-12-08T01:41:22;6.20;;;2.93;;
22894;SDS011;11614;52.494;6.976;2022-12-08T01:46:14;10.33;;;4.03;;
22894;SDS011;11614;52.494;6.976;2022-12-08T01:48:40;7.77;;;4.73;;
22894;SDS011;11614;52.494;6.976;2022-12-08T01:51:06;5.57;;;2.83;;
22894;SDS011;11614;52.494;6.976;2022-12-08T01:53:32;7.10;;;3.70;;
22894;SDS011;11614;52.494;6.976;2022-12-08T01:55:59;7.03;;;3.17;;
22894;SDS011;11614;52.494;6.976;2022-12-08T01:58:29;10.30;;;4.30;;
22894;SDS011;11614;52.494;6.976;2022-12-08T02:00:57;10.17;;;4.97;;
22894;SDS011;11614;52.494;6.976;2022-12-08T02:03:24;9.03;;;4.47;;
22894;SDS011;11614;52.494;6.976;2022-12-08T02:05:51;8.73;;;3.87;;
22894;SDS011;11614;52.494;6.976;2022-12-08T02:08:17;10.17;;;5.07;;
22894;SDS011;11614;52.494;6.976;2022-12-08T02:10:45;9.57;;;5.33;;
22894;SDS011;11614;52.494;6.976;2022-12-08T02:13:12;6.70;;;3.50;;
22894;SDS011;11614;52.494;6.976;2022-12-08T02:15:48;10.47;;;4.03;;
22894;SDS011;11614;52.494;6.976;2022-12-08T02:21:08;10.40;;;4.23;;
22894;SDS011;11614;52.494;6.976;2022-12-08T02:26:09;6.67;;;2.73;;
22894;SDS011;11614;52.494;6.976;2022-12-08T02:50:55;8.23;;;4.93;;
22894;SDS011;11614;52.494;6.976;2022-12-08T02:56:58;7.00;;;2.93;;
22894;SDS011;11614;52.494;6.976;2022-12-08T03:11:57;7.40;;;3.70;;
22894;SDS011;11614;52.494;6.976;2022-12-08T03:14:25;5.53;;;2.60;;
22894;SDS011;11614;52.494;6.976;2022-12-08T03:16:52;5.83;;;3.57;;
22894;SDS011;11614;52.494;6.976;2022-12-08T03:19:22;6.47;;;3.13;;
22894;SDS011;11614;52.494;6.976;2022-12-08T03:21:49;6.60;;;3.10;;
22894;SDS011;11614;52.494;6.976;2022-12-08T03:24:15;7.03;;;3.70;;
22894;SDS011;11614;52.494;6.976;2022-12-08T03:26:53;8.73;;;5.17;;
22894;SDS011;11614;52.494;6.976;2022-12-08T03:29:21;11.00;;;5.83;;
22894;SDS011;11614;52.494;6.976;2022-12-08T03:31:53;11.87;;;6.13;;
22894;SDS011;11614;52.494;6.976;2022-12-08T03:34:21;11.50;;;5.43;;
22894;SDS011;11614;52.494;6.976;2022-12-08T03:36:49;6.57;;;4.20;;
22894;SDS011;11614;52.494;6.976;2022-12-08T03:39:15;11.90;;;6.70;;
22894;SDS011;11614;52.494;6.976;2022-12-08T03:41:41;12.30;;;5.77;;
22894;SDS011;11614;52.494;6.976;2022-12-08T03:44:07;7.23;;;4.87;;
22894;SDS011;11614;52.494;6.976;2022-12-08T03:46:33;11.03;;;5.93;;
22894;SDS011;11614;52.494;6.976;2022-12-08T03:48:59;11.07;;;6.00;;
22894;SDS011;11614;52.494;6.976;2022-12-08T03:51:25;11.47;;;6.57;;
22894;SDS011;11614;52.494;6.976;2022-12-08T03:53:51;11.30;;;6.10;;
22894;SDS011;11614;52.494;6.976;2022-12-08T03:56:25;7.70;;;4.10;;
22894;SDS011;11614;52.494;6.976;2022-12-08T03:58:51;12.93;;;6.97;;
22894;SDS011;11614;52.494;6.976;2022-12-08T04:01:17;11.50;;;7.17;;
22894;SDS011;11614;52.494;6.976;2022-12-08T04:03:43;11.97;;;6.40;;
22894;SDS011;11614;52.494;6.976;2022-12-08T04:06:09;7.73;;;4.00;;
22894;SDS011;11614;52.494;6.976;2022-12-08T04:08:35;15.63;;;9.63;;
22894;SDS011;11614;52.494;6.976;2022-12-08T04:11:02;7.03;;;4.33;;
22894;SDS011;11614;52.494;6.976;2022-12-08T04:13:30;8.30;;;5.07;;
22894;SDS011;11614;52.494;6.976;2022-12-08T04:15:56;14.23;;;8.60;;
22894;SDS011;11614;52.494;6.976;2022-12-08T04:18:22;11.80;;;5.90;;
22894;SDS011;11614;52.494;6.976;2022-12-08T04:20:48;14.13;;;7.27;;
22894;SDS011;11614;52.494;6.976;2022-12-08T04:23:14;12.70;;;5.73;;
22894;SDS011;11614;52.494;6.976;2022-12-08T04:25:40;10.13;;;5.37;;
22894;SDS011;11614;52.494;6.976;2022-12-08T04:28:06;13.77;;;8.73;;
22894;SDS011;11614;52.494;6.976;2022-12-08T04:30:32;11.67;;;6.23;;
22894;SDS011;11614;52.494;6.976;2022-12-08T04:32:58;12.23;;;7.53;;
22894;SDS011;11614;52.494;6.976;2022-12-08T04:35:25;7.57;;;4.37;;
22894;SDS011;11614;52.494;6.976;2022-12-08T04:37:51;10.47;;;6.73;;
22894;SDS011;11614;52.494;6.976;2022-12-08T04:40:17;11.37;;;5.97;;
22894;SDS011;11614;52.494;6.976;2022-12-08T04:42:43;13.43;;;8.27;;
22894;SDS011;11614;52.494;6.976;2022-12-08T04:45:09;9.53;;;5.57;;
22894;SDS011;11614;52.494;6.976;2022-12-08T04:47:35;12.20;;;7.73;;
22894;SDS011;11614;52.494;6.976;2022-12-08T04:50:01;8.90;;;5.63;;
22894;SDS011;11614;52.494;6.976;2022-12-08T04:52:27;11.03;;;5.33;;
22894;SDS011;11614;52.494;6.976;2022-12-08T04:54:53;6.27;;;3.90;;
22894;SDS011;11614;52.494;6.976;2022-12-08T04:57:19;9.40;;;5.73;;
22894;SDS011;11614;52.494;6.976;2022-12-08T04:59:45;6.10;;;3.47;;
22894;SDS011;11614;52.494;6.976;2022-12-08T05:02:11;8.20;;;4.83;;
22894;SDS011;11614;52.494;6.976;2022-12-08T05:04:37;7.20;;;3.43;;
22894;SDS011;11614;52.494;6.976;2022-12-08T05:07:03;8.53;;;5.30;;
22894;SDS011;11614;52.494;6.976;2022-12-08T05:09:29;6.97;;;4.43;;
22894;SDS011;11614;52.494;6.976;2022-12-08T05:11:55;5.27;;;2.93;;
22894;SDS011;11614;52.494;6.976;2022-12-08T05:14:21;8.93;;;4.63;;
22894;SDS011;11614;52.494;6.976;2022-12-08T05:16:48;3.43;;;2.23;;
22894;SDS011;11614;52.494;6.976;2022-12-08T05:19:14;6.73;;;3.57;;
22894;SDS011;11614;52.494;6.976;2022-12-08T05:21:40;7.63;;;4.37;;
22894;SDS011;11614;52.494;6.976;2022-12-08T05:24:07;7.93;;;4.50;;
22894;SDS011;11614;52.494;6.976;2022-12-08T05:26:33;5.03;;;3.27;;
22894;SDS011;11614;52.494;6.976;2022-12-08T05:28:59;5.00;;;3.13;;
22894;SDS011;11614;52.494;6.976;2022-12-08T05:31:25;7.23;;;3.03;;
22894;SDS011;11614;52.494;6.976;2022-12-08T05:33:51;9.47;;;4.93;;
22894;SDS011;11614;52.494;6.976;2022-12-08T05:36:18;9.37;;;4.50;;
22894;SDS011;11614;52.494;6.976;2022-12-08T05:38:44;9.43;;;5.80;;
22894;SDS011;11614;52.494;6.976;2022-12-08T05:41:15;7.30;;;3.90;;
22894;SDS011;11614;52.494;6.976;2022-12-08T05:43:41;8.40;;;4.80;;
22894;SDS011;11614;52.494;6.976;2022-12-08T05:46:07;4.47;;;2.00;;
22894;SDS011;11614;52.494;6.976;2022-12-08T05:48:34;7.47;;;4.20;;
22894;SDS011;11614;52.494;6.976;2022-12-08T05:51:00;7.20;;;3.73;;
22894;SDS011;11614;52.494;6.976;2022-12-08T05:53:26;7.77;;;3.57;;
22894;SDS011;11614;52.494;6.976;2022-12-08T05:55:52;8.97;;;4.80;;
22894;SDS011;11614;52.494;6.976;2022-12-08T05:58:19;11.00;;;7.33;;
22894;SDS011;11614;52.494;6.976;2022-12-08T06:00:46;7.87;;;3.47;;
22894;SDS011;11614;52.494;6.976;2022-12-08T06:03:12;5.87;;;2.37;;
22894;SDS011;11614;52.494;6.976;2022-12-08T06:05:39;11.53;;;6.43;;
22894;SDS011;11614;52.494;6.976;2022-12-08T06:08:05;4.97;;;2.57;;
22894;SDS011;11614;52.494;6.976;2022-12-08T06:10:31;9.90;;;5.57;;
22894;SDS011;11614;52.494;6.976;2022-12-08T06:12:57;7.73;;;3.63;;
22894;SDS011;11614;52.494;6.976;2022-12-08T06:15:24;9.83;;;5.13;;
22894;SDS011;11614;52.494;6.976;2022-12-08T06:17:50;9.90;;;4.77;;
22894;SDS011;11614;52.494;6.976;2022-12-08T06:20:16;11.20;;;5.03;;
22894;SDS011;11614;52.494;6.976;2022-12-08T06:22:42;11.10;;;5.30;;
22894;SDS011;11614;52.494;6.976;2022-12-08T06:25:08;9.37;;;4.47;;
22894;SDS011;11614;52.494;6.976;2022-12-08T06:27:34;7.23;;;3.73;;
22894;SDS011;11614;52.494;6.976;2022-12-08T06:30:00;9.57;;;3.90;;
22894;SDS011;11614;52.494;6.976;2022-12-08T06:32:26;8.87;;;4.23;;
22894;SDS011;11614;52.494;6.976;2022-12-08T06:34:52;8.83;;;4.80;;
22894;SDS011;11614;52.494;6.976;2022-12-08T06:37:18;5.17;;;2.27;;
22894;SDS011;11614;52.494;6.976;2022-12-08T06:39:44;5.73;;;3.00;;
22894;SDS011;11614;52.494;6.976;2022-12-08T06:42:10;4.27;;;2.17;;
22894;SDS011;11614;52.494;6.976;2022-12-08T06:44:55;7.27;;;2.70;;
22894;SDS011;11614;52.494;6.976;2022-12-08T06:47:21;5.20;;;2.10;;
22894;SDS011;11614;52.494;6.976;2022-12-08T06:49:47;6.93;;;3.73;;
22894;SDS011;11614;52.494;6.976;2022-12-08T06:52:14;4.97;;;1.90;;
22894;SDS011;11614;52.494;6.976;2022-12-08T06:54:40;4.33;;;1.83;;
22894;SDS011;11614;52.494;6.976;2022-12-08T06:57:06;5.70;;;2.63;;
22894;SDS011;11614;52.494;6.976;2022-12-08T06:59:32;3.37;;;1.80;;
22894;SDS011;11614;52.494;6.976;2022-12-08T07:01:58;4.53;;;2.30;;
22894;SDS011;11614;52.494;6.976;2022-12-08T07:04:24;6.83;;;3.10;;
22894;SDS011;11614;52.494;6.976;2022-12-08T07:06:50;4.23;;;2.00;;
22894;SDS011;11614;52.494;6.976;2022-12-08T07:09:16;5.03;;;2.10;;
22894;SDS011;11614;52.494;6.976;2022-12-08T07:11:42;5.90;;;2.77;;
22894;SDS011;11614;52.494;6.976;2022-12-08T07:14:08;7.13;;;2.80;;
22894;SDS011;11614;52.494;6.976;2022-12-08T07:16:34;4.87;;;2.17;;
22894;SDS011;11614;52.494;6.976;2022-12-08T07:19:00;6.83;;;1.47;;
22894;SDS011;11614;52.494;6.976;2022-12-08T07:21:26;2.17;;;1.07;;
22894;SDS011;11614;52.494;6.976;2022-12-08T07:23:52;3.50;;;1.47;;
22894;SDS011;11614;52.494;6.976;2022-12-08T07:26:18;8.37;;;3.60;;
22894;SDS011;11614;52.494;6.976;2022-12-08T07:28:45;3.90;;;1.43;;
22894;SDS011;11614;52.494;6.976;2022-12-08T07:31:21;5.63;;;2.80;;
22894;SDS011;11614;52.494;6.976;2022-12-08T07:33:47;4.53;;;2.00;;
22894;SDS011;11614;52.494;6.976;2022-12-08T07:36:14;4.97;;;2.13;;
22894;SDS011;11614;52.494;6.976;2022-12-08T07:38:40;5.20;;;2.93;;
22894;SDS011;11614;52.494;6.976;2022-12-08T07:41:10;3.27;;;1.37;;
22894;SDS011;11614;52.494;6.976;2022-12-08T07:43:36;4.73;;;2.70;;
22894;SDS011;11614;52.494;6.976;2022-12-08T07:46:02;4.90;;;2.00;;
22894;SDS011;11614;52.494;6.976;2022-12-08T07:48:28;4.37;;;1.87;;
22894;SDS011;11614;52.494;6.976;2022-12-08T07:51:01;8.50;;;4.83;;
22894;SDS011;11614;52.494;6.976;2022-12-08T07:53:27;2.83;;;1.00;;
22894;SDS011;11614;52.494;6.976;2022-12-08T07:55:53;7.27;;;3.13;;
22894;SDS011;11614;52.494;6.976;2022-12-08T07:58:22;7.40;;;3.53;;
22894;SDS011;11614;52.494;6.976;2022-12-08T08:00:48;5.67;;;2.87;;
22894;SDS011;11614;52.494;6.976;2022-12-08T08:03:14;6.07;;;3.33;;
22894;SDS011;11614;52.494;6.976;2022-12-08T08:05:40;7.00;;;2.77;;
22894;SDS011;11614;52.494;6.976;2022-12-08T08:08:07;5.10;;;2.20;;
22894;SDS011;11614;52.494;6.976;2022-12-08T08:10:33;7.73;;;4.97;;
22894;SDS011;11614;52.494;6.976;2022-12-08T08:12:59;8.63;;;3.93;;
22894;SDS011;11614;52.494;6.976;2022-12-08T08:15:25;7.97;;;4.67;;
22894;SDS011;11614;52.494;6.976;2022-12-08T08:17:51;6.73;;;3.87;;
22894;SDS011;11614;52.494;6.976;2022-12-08T08:20:18;6.90;;;4.23;;
22894;SDS011;11614;52.494;6.976;2022-12-08T08:22:45;4.60;;;1.47;;
22894;SDS011;11614;52.494;6.976;2022-12-08T08:25:11;9.10;;;4.33;;
22894;SDS011;11614;52.494;6.976;2022-12-08T08:27:37;9.53;;;5.17;;
22894;SDS011;11614;52.494;6.976;2022-12-08T08:30:04;3.93;;;2.47;;
22894;SDS011;11614;52.494;6.976;2022-12-08T08:32:32;8.07;;;4.47;;
22894;SDS011;11614;52.494;6.976;2022-12-08T08:34:58;9.30;;;4.00;;
22894;SDS011;11614;52.494;6.976;2022-12-08T08:37:24;4.60;;;2.43;;
22894;SDS011;11614;52.494;6.976;2022-12-08T08:39:51;6.50;;;3.30;;
22894;SDS011;11614;52.494;6.976;2022-12-08T08:42:17;6.17;;;3.17;;
22894;SDS011;11614;52.494;6.976;2022-12-08T08:44:43;6.87;;;3.77;;
22894;SDS011;11614;52.494;6.976;2022-12-08T08:47:09;7.20;;;3.57;;
22894;SDS011;11614;52.494;6.976;2022-12-08T08:49:35;3.53;;;1.70;;
22894;SDS011;11614;52.494;6.976;2022-12-08T08:52:02;3.87;;;1.50;;
22894;SDS011;11614;52.494;6.976;2022-12-08T08:54:28;5.57;;;2.73;;
22894;SDS011;11614;52.494;6.976;2022-12-08T08:56:55;8.07;;;3.37;;
22894;SDS011;11614;52.494;6.976;2022-12-08T08:59:21;5.63;;;1.80;;
22894;SDS011;11614;52.494;6.976;2022-12-08T09:01:47;7.83;;;3.70;;
22894;SDS011;11614;52.494;6.976;2022-12-08T09:04:13;7.87;;;3.07;;
22894;SDS011;11614;52.494;6.976;2022-12-08T09:06:39;8.53;;;4.20;;
22894;SDS011;11614;52.494;6.976;2022-12-08T09:09:07;6.20;;;3.80;;
22894;SDS011;11614;52.494;6.976;2022-12-08T09:11:33;6.60;;;3.33;;
22894;SDS011;11614;52.494;6.976;2022-12-08T09:13:59;10.00;;;4.00;;
22894;SDS011;11614;52.494;6.976;2022-12-08T09:16:25;8.90;;;4.10;;
22894;SDS011;11614;52.494;6.976;2022-12-08T09:18:51;6.30;;;2.97;;
22894;SDS011;11614;52.494;6.976;2022-12-08T09:21:19;9.10;;;4.20;;
22894;SDS011;11614;52.494;6.976;2022-12-08T09:23:46;8.30;;;4.53;;
22894;SDS011;11614;52.494;6.976;2022-12-08T09:26:12;6.27;;;3.43;;
22894;SDS011;11614;52.494;6.976;2022-12-08T09:28:38;6.17;;;3.20;;
22894;SDS011;11614;52.494;6.976;2022-12-08T09:31:10;8.40;;;3.37;;
22894;SDS011;11614;52.494;6.976;2022-12-08T09:33:36;8.67;;;3.63;;
22894;SDS011;11614;52.494;6.976;2022-12-08T09:36:02;8.47;;;3.60;;
22894;SDS011;11614;52.494;6.976;2022-12-08T09:38:28;6.80;;;2.83;;
22894;SDS011;11614;52.494;6.976;2022-12-08T09:40:54;6.67;;;3.07;;
22894;SDS011;11614;52.494;6.976;2022-12-08T09:45:49;6.47;;;1.97;;
22894;SDS011;11614;52.494;6.976;2022-12-08T09:48:21;4.37;;;1.60;;
22894;SDS011;11614;52.494;6.976;2022-12-08T09:56:23;4.43;;;2.70;;
22894;SDS011;11614;52.494;6.976;2022-12-08T10:01:16;4.47;;;1.67;;
22894;SDS011;11614;52.494;6.976;2022-12-08T10:03:43;5.13;;;2.27;;
22894;SDS011;11614;52.494;6.976;2022-12-08T10:11:48;4.43;;;1.33;;
22894;SDS011;11614;52.494;6.976;2022-12-08T10:16:46;2.83;;;0.87;;
22894;SDS011;11614;52.494;6.976;2022-12-08T10:19:16;2.27;;;0.87;;
22894;SDS011;11614;52.494;6.976;2022-12-08T10:21:42;2.30;;;0.93;;
22894;SDS011;11614;52.494;6.976;2022-12-08T10:24:21;3.90;;;1.40;;
22894;SDS011;11614;52.494;6.976;2022-12-08T10:26:48;1.00;;;0.40;;
22894;SDS011;11614;52.494;6.976;2022-12-08T10:29:14;2.73;;;1.20;;
22894;SDS011;11614;52.494;6.976;2022-12-08T10:31:40;2.27;;;1.03;;
22894;SDS011;11614;52.494;6.976;2022-12-08T10:34:17;3.43;;;1.07;;
22894;SDS011;11614;52.494;6.976;2022-12-08T10:36:44;3.37;;;1.50;;
22894;SDS011;11614;52.494;6.976;2022-12-08T10:42:05;2.60;;;0.83;;
22894;SDS011;11614;52.494;6.976;2022-12-08T10:44:32;1.90;;;0.83;;
22894;SDS011;11614;52.494;6.976;2022-12-08T10:46:58;4.00;;;0.90;;
22894;SDS011;11614;52.494;6.976;2022-12-08T10:49:25;2.30;;;0.50;;
22894;SDS011;11614;52.494;6.976;2022-12-08T10:51:51;3.07;;;1.23;;
22894;SDS011;11614;52.494;6.976;2022-12-08T10:56:53;2.53;;;1.10;;
22894;SDS011;11614;52.494;6.976;2022-12-08T10:59:19;3.53;;;1.10;;
22894;SDS011;11614;52.494;6.976;2022-12-08T11:01:49;6.60;;;1.10;;
22894;SDS011;11614;52.494;6.976;2022-12-08T11:04:17;2.53;;;0.70;;
22894;SDS011;11614;52.494;6.976;2022-12-08T11:06:43;2.83;;;0.90;;
22894;SDS011;11614;52.494;6.976;2022-12-08T11:16:50;4.50;;;1.07;;
22894;SDS011;11614;52.494;6.976;2022-12-08T11:19:17;3.77;;;0.90;;
22894;SDS011;11614;52.494;6.976;2022-12-08T11:21:44;2.03;;;1.43;;
22894;SDS011;11614;52.494;6.976;2022-12-08T11:26:39;2.77;;;0.60;;
22894;SDS011;11614;52.494;6.976;2022-12-08T11:29:09;1.93;;;0.70;;
22894;SDS011;11614;52.494;6.976;2022-12-08T11:31:40;2.40;;;0.80;;
22894;SDS011;11614;52.494;6.976;2022-12-08T11:34:09;1.83;;;0.50;;
22894;SDS011;11614;52.494;6.976;2022-12-08T11:36:39;2.23;;;0.60;;
22894;SDS011;11614;52.494;6.976;2022-12-08T11:39:05;2.57;;;0.87;;
22894;SDS011;11614;52.494;6.976;2022-12-08T11:41:36;2.10;;;0.73;;
22894;SDS011;11614;52.494;6.976;2022-12-08T11:46:51;4.23;;;0.97;;
22894;SDS011;11614;52.494;6.976;2022-12-08T11:49:20;1.60;;;0.60;;
22894;SDS011;11614;52.494;6.976;2022-12-08T11:51:58;2.60;;;0.80;;
22894;SDS011;11614;52.494;6.976;2022-12-08T11:54:28;2.07;;;0.30;;
22894;SDS011;11614;52.494;6.976;2022-12-08T11:56:56;3.90;;;1.00;;
22894;SDS011;11614;52.494;6.976;2022-12-08T11:59:27;2.80;;;1.17;;
22894;SDS011;11614;52.494;6.976;2022-12-08T12:01:54;3.13;;;1.10;;
22894;SDS011;11614;52.494;6.976;2022-12-08T12:04:24;3.63;;;1.20;;
22894;SDS011;11614;52.494;6.976;2022-12-08T12:07:06;2.43;;;0.90;;
22894;SDS011;11614;52.494;6.976;2022-12-08T12:09:36;3.13;;;0.70;;
22894;SDS011;11614;52.494;6.976;2022-12-08T12:12:10;3.87;;;1.57;;
22894;SDS011;11614;52.494;6.976;2022-12-08T12:19:48;5.80;;;2.00;;
22894;SDS011;11614;52.494;6.976;2022-12-08T12:22:15;5.63;;;1.40;;
22894;SDS011;11614;52.494;6.976;2022-12-08T12:24:42;4.43;;;1.37;;
22894;SDS011;11614;52.494;6.976;2022-12-08T12:29:37;3.90;;;2.10;;
22894;SDS011;11614;52.494;6.976;2022-12-08T12:32:10;8.27;;;2.77;;
22894;SDS011;11614;52.494;6.976;2022-12-08T12:37:36;4.33;;;1.90;;
22894;SDS011;11614;52.494;6.976;2022-12-08T12:40:10;3.67;;;1.60;;
22894;SDS011;11614;52.494;6.976;2022-12-08T12:42:42;7.67;;;2.87;;
22894;SDS011;11614;52.494;6.976;2022-12-08T12:47:44;6.33;;;2.20;;
22894;SDS011;11614;52.494;6.976;2022-12-08T12:50:11;2.90;;;1.13;;
22894;SDS011;11614;52.494;6.976;2022-12-08T12:52:38;7.27;;;2.80;;
22894;SDS011;11614;52.494;6.976;2022-12-08T12:57:49;4.80;;;2.60;;
22894;SDS011;11614;52.494;6.976;2022-12-08T13:00:17;4.50;;;2.00;;
22894;SDS011;11614;52.494;6.976;2022-12-08T13:08:23;7.53;;;2.90;;
22894;SDS011;11614;52.494;6.976;2022-12-08T13:13:00;6.23;;;2.37;;
22894;SDS011;11614;52.494;6.976;2022-12-08T13:15:28;5.00;;;2.37;;
22894;SDS011;11614;52.494;6.976;2022-12-08T13:17:58;2.97;;;1.53;;
22894;SDS011;11614;52.494;6.976;2022-12-08T13:20:24;4.50;;;1.90;;
22894;SDS011;11614;52.494;6.976;2022-12-08T13:30:46;5.00;;;1.57;;
22894;SDS011;11614;52.494;6.976;2022-12-08T13:33:18;5.00;;;2.00;;
22894;SDS011;11614;52.494;6.976;2022-12-08T13:35:46;2.93;;;1.03;;
22894;SDS011;11614;52.494;6.976;2022-12-08T13:38:14;5.97;;;2.40;;
22894;SDS011;11614;52.494;6.976;2022-12-08T13:40:41;2.77;;;1.57;;
22894;SDS011;11614;52.494;6.976;2022-12-08T13:43:10;4.20;;;1.90;;
22894;SDS011;11614;52.494;6.976;2022-12-08T13:45:38;5.97;;;2.33;;
22894;SDS011;11614;52.494;6.976;2022-12-08T13:51:06;3.00;;;1.70;;
22894;SDS011;11614;52.494;6.976;2022-12-08T13:53:36;6.33;;;2.23;;
22894;SDS011;11614;52.494;6.976;2022-12-08T13:56:04;3.50;;;2.00;;
22894;SDS011;11614;52.494;6.976;2022-12-08T13:58:31;6.07;;;2.47;;
22894;SDS011;11614;52.494;6.976;2022-12-08T14:01:03;4.87;;;2.40;;
22894;SDS011;11614;52.494;6.976;2022-12-08T14:03:32;6.53;;;2.70;;
22894;SDS011;11614;52.494;6.976;2022-12-08T14:06:01;6.27;;;2.60;;
22894;SDS011;11614;52.494;6.976;2022-12-08T14:08:29;7.30;;;3.10;;
22894;SDS011;11614;52.494;6.976;2022-12-08T14:11:00;4.43;;;2.43;;
22894;SDS011;11614;52.494;6.976;2022-12-08T14:13:27;4.63;;;2.57;;
22894;SDS011;11614;52.494;6.976;2022-12-08T14:15:53;7.40;;;3.50;;
22894;SDS011;11614;52.494;6.976;2022-12-08T14:18:26;8.93;;;3.23;;
22894;SDS011;11614;52.494;6.976;2022-12-08T14:21:05;7.53;;;3.07;;
22894;SDS011;11614;52.494;6.976;2022-12-08T14:23:35;7.57;;;2.87;;
22894;SDS011;11614;52.494;6.976;2022-12-08T14:26:02;6.37;;;3.07;;
22894;SDS011;11614;52.494;6.976;2022-12-08T14:28:29;5.33;;;2.87;;
22894;SDS011;11614;52.494;6.976;2022-12-08T14:30:56;9.00;;;3.17;;
22894;SDS011;11614;52.494;6.976;2022-12-08T14:33:22;6.73;;;2.60;;
22894;SDS011;11614;52.494;6.976;2022-12-08T14:35:52;7.47;;;3.37;;
22894;SDS011;11614;52.494;6.976;2022-12-08T14:38:19;9.67;;;3.80;;
22894;SDS011;11614;52.494;6.976;2022-12-08T14:40:47;7.83;;;3.93;;
22894;SDS011;11614;52.494;6.976;2022-12-08T14:43:14;6.07;;;2.97;;
22894;SDS011;11614;52.494;6.976;2022-12-08T14:50:53;8.47;;;2.87;;
22894;SDS011;11614;52.494;6.976;2022-12-08T14:53:20;4.60;;;2.37;;
22894;SDS011;11614;52.494;6.976;2022-12-08T14:55:46;4.13;;;2.27;;
22894;SDS011;11614;52.494;6.976;2022-12-08T14:58:17;5.47;;;2.30;;
22894;SDS011;11614;52.494;6.976;2022-12-08T15:00:53;5.47;;;2.00;;
22894;SDS011;11614;52.494;6.976;2022-12-08T15:03:22;4.03;;;1.73;;
22894;SDS011;11614;52.494;6.976;2022-12-08T15:05:51;7.27;;;2.90;;
22894;SDS011;11614;52.494;6.976;2022-12-08T15:08:17;5.17;;;2.57;;
22894;SDS011;11614;52.494;6.976;2022-12-08T15:10:43;5.97;;;2.63;;
22894;SDS011;11614;52.494;6.976;2022-12-08T15:18:15;4.03;;;2.27;;
22894;SDS011;11614;52.494;6.976;2022-12-08T15:20:43;3.27;;;1.63;;
22894;SDS011;11614;52.494;6.976;2022-12-08T15:23:26;4.57;;;1.60;;
22894;SDS011;11614;52.494;6.976;2022-12-08T15:25:53;4.00;;;1.80;;
22894;SDS011;11614;52.494;6.976;2022-12-08T15:28:21;1.87;;;0.97;;
22894;SDS011;11614;52.494;6.976;2022-12-08T15:30:47;2.53;;;1.60;;
22894;SDS011;11614;52.494;6.976;2022-12-08T15:33:13;4.30;;;2.10;;
22894;SDS011;11614;52.494;6.976;2022-12-08T15:35:39;2.63;;;1.60;;
22894;SDS011;11614;52.494;6.976;2022-12-08T15:38:05;4.03;;;1.73;;
22894;SDS011;11614;52.494;6.976;2022-12-08T15:40:31;4.30;;;1.60;;
22894;SDS011;11614;52.494;6.976;2022-12-08T15:42:57;5.03;;;2.40;;
22894;SDS011;11614;52.494;6.976;2022-12-08T15:45:25;4.83;;;1.80;;
22894;SDS011;11614;52.494;6.976;2022-12-08T15:47:52;2.80;;;1.50;;
22894;SDS011;11614;52.494;6.976;2022-12-08T15:50:19;3.90;;;1.53;;
22894;SDS011;11614;52.494;6.976;2022-12-08T15:52:46;2.33;;;1.20;;
22894;SDS011;11614;52.494;6.976;2022-12-08T15:55:13;2.63;;;1.40;;
22894;SDS011;11614;52.494;6.976;2022-12-08T15:57:39;2.17;;;1.13;;
22894;SDS011;11614;52.494;6.976;2022-12-08T16:00:27;5.67;;;1.90;;
22894;SDS011;11614;52.494;6.976;2022-12-08T16:02:54;2.97;;;1.47;;
22894;SDS011;11614;52.494;6.976;2022-12-08T16:05:21;6.70;;;3.03;;
22894;SDS011;11614;52.494;6.976;2022-12-08T16:07:47;4.03;;;1.53;;
22894;SDS011;11614;52.494;6.976;2022-12-08T16:10:14;8.70;;;2.60;;
22894;SDS011;11614;52.494;6.976;2022-12-08T16:12:41;3.03;;;2.10;;
22894;SDS011;11614;52.494;6.976;2022-12-08T16:15:26;25.23;;;12.87;;
22894;SDS011;11614;52.494;6.976;2022-12-08T16:17:52;25.53;;;12.87;;
22894;SDS011;11614;52.494;6.976;2022-12-08T16:20:20;23.20;;;11.93;;
22894;SDS011;11614;52.494;6.976;2022-12-08T16:22:46;4.73;;;2.73;;
22894;SDS011;11614;52.494;6.976;2022-12-08T16:25:13;8.40;;;3.43;;
22894;SDS011;11614;52.494;6.976;2022-12-08T16:27:39;12.83;;;5.67;;
22894;SDS011;11614;52.494;6.976;2022-12-08T16:30:06;13.83;;;6.10;;
22894;SDS011;11614;52.494;6.976;2022-12-08T16:32:32;12.80;;;5.73;;
22894;SDS011;11614;52.494;6.976;2022-12-08T16:34:58;13.77;;;5.20;;
22894;SDS011;11614;52.494;6.976;2022-12-08T16:37:25;5.50;;;2.63;;
22894;SDS011;11614;52.494;6.976;2022-12-08T16:39:52;15.37;;;7.83;;
22894;SDS011;11614;52.494;6.976;2022-12-08T16:42:19;10.03;;;5.07;;
22894;SDS011;11614;52.494;6.976;2022-12-08T16:47:37;9.87;;;4.47;;
22894;SDS011;11614;52.494;6.976;2022-12-08T16:50:07;9.40;;;5.50;;
22894;SDS011;11614;52.494;6.976;2022-12-08T16:52:33;10.07;;;5.73;;
22894;SDS011;11614;52.494;6.976;2022-12-08T16:54:59;7.63;;;4.97;;
22894;SDS011;11614;52.494;6.976;2022-12-08T16:57:26;9.23;;;5.10;;